Terminal Aerodrome Forecast
Issued by NWS

Home | Current Version | Previous Version | Text Only | Print | Product List | Glossary On
Versions: 1 2 3 4 5 6 7 8 9 10 11 12 13
000
FTUS42 TJSJ 271100
TAFKPK
TAF
TKPK 271140Z 2712/2812 05016KT P6SM SCT016
     FM271300 11014KT P6SM VCSH FEW020
     FM272200 08011KT P6SM VCSH BKN020
      AMD NOT SKED 2802/2811=

USA.gov is the U.S. government's official web portal to all federal, state and local government web resources and services.